sensor_id;sensor_type;location;lat;lon;timestamp;P1;durP1;ratioP1;P2;durP2;ratioP2
21394;SDS011;10858;42.714;23.180;2023-04-25T00:00:35;0.43;;;0.43;;
21394;SDS011;10858;42.714;23.180;2023-04-25T00:03:01;0.40;;;0.40;;
21394;SDS011;10858;42.714;23.180;2023-04-25T00:05:28;0.30;;;0.30;;
21394;SDS011;10858;42.714;23.180;2023-04-25T00:07:54;0.38;;;0.38;;
21394;SDS011;10858;42.714;23.180;2023-04-25T00:10:21;0.20;;;0.20;;
21394;SDS011;10858;42.714;23.180;2023-04-25T00:12:47;0.50;;;0.50;;
21394;SDS011;10858;42.714;23.180;2023-04-25T00:15:13;0.20;;;0.20;;
21394;SDS011;10858;42.714;23.180;2023-04-25T00:17:40;0.20;;;0.20;;
21394;SDS011;10858;42.714;23.180;2023-04-25T00:20:06;0.20;;;0.20;;
21394;SDS011;10858;42.714;23.180;2023-04-25T00:22:34;0.20;;;0.20;;
21394;SDS011;10858;42.714;23.180;2023-04-25T00:25:02;0.38;;;0.38;;
21394;SDS011;10858;42.714;23.180;2023-04-25T00:27:30;2.10;;;0.52;;
21394;SDS011;10858;42.714;23.180;2023-04-25T00:29:56;0.20;;;0.20;;
21394;SDS011;10858;42.714;23.180;2023-04-25T00:32:22;3.92;;;1.08;;
21394;SDS011;10858;42.714;23.180;2023-04-25T00:34:48;0.38;;;0.38;;
21394;SDS011;10858;42.714;23.180;2023-04-25T00:37:15;0.30;;;0.30;;
21394;SDS011;10858;42.714;23.180;2023-04-25T00:39:41;0.20;;;0.20;;
21394;SDS011;10858;42.714;23.180;2023-04-25T00:42:07;0.20;;;0.20;;
21394;SDS011;10858;42.714;23.180;2023-04-25T00:44:34;0.20;;;0.20;;
21394;SDS011;10858;42.714;23.180;2023-04-25T00:47:02;0.30;;;0.30;;
21394;SDS011;10858;42.714;23.180;2023-04-25T00:49:28;0.40;;;0.40;;
21394;SDS011;10858;42.714;23.180;2023-04-25T00:51:54;0.20;;;0.20;;
21394;SDS011;10858;42.714;23.180;2023-04-25T00:54:21;0.20;;;0.20;;
21394;SDS011;10858;42.714;23.180;2023-04-25T00:56:48;0.28;;;0.28;;
21394;SDS011;10858;42.714;23.180;2023-04-25T00:59:14;0.30;;;0.30;;
21394;SDS011;10858;42.714;23.180;2023-04-25T01:01:40;0.20;;;0.20;;
21394;SDS011;10858;42.714;23.180;2023-04-25T01:04:07;0.35;;;0.35;;
21394;SDS011;10858;42.714;23.180;2023-04-25T01:06:33;0.20;;;0.20;;
21394;SDS011;10858;42.714;23.180;2023-04-25T01:09:00;0.22;;;0.22;;
21394;SDS011;10858;42.714;23.180;2023-04-25T01:11:27;1.05;;;0.95;;
21394;SDS011;10858;42.714;23.180;2023-04-25T01:13:54;0.20;;;0.20;;
21394;SDS011;10858;42.714;23.180;2023-04-25T01:16:20;0.30;;;0.30;;
21394;SDS011;10858;42.714;23.180;2023-04-25T01:18:48;0.28;;;0.28;;
21394;SDS011;10858;42.714;23.180;2023-04-25T01:21:16;0.35;;;0.35;;
21394;SDS011;10858;42.714;23.180;2023-04-25T01:23:42;0.98;;;0.50;;
21394;SDS011;10858;42.714;23.180;2023-04-25T01:26:09;0.30;;;0.30;;
21394;SDS011;10858;42.714;23.180;2023-04-25T01:28:36;0.57;;;0.57;;
21394;SDS011;10858;42.714;23.180;2023-04-25T01:31:06;0.40;;;0.40;;
21394;SDS011;10858;42.714;23.180;2023-04-25T01:33:32;0.50;;;0.50;;
21394;SDS011;10858;42.714;23.180;2023-04-25T01:35:58;0.45;;;0.45;;
21394;SDS011;10858;42.714;23.180;2023-04-25T01:38:25;0.28;;;0.28;;
21394;SDS011;10858;42.714;23.180;2023-04-25T01:40:51;0.40;;;0.40;;
21394;SDS011;10858;42.714;23.180;2023-04-25T01:43:18;0.30;;;0.30;;
21394;SDS011;10858;42.714;23.180;2023-04-25T01:45:45;1.00;;;0.90;;
21394;SDS011;10858;42.714;23.180;2023-04-25T01:48:12;0.40;;;0.40;;
21394;SDS011;10858;42.714;23.180;2023-04-25T01:50:39;0.22;;;0.22;;
21394;SDS011;10858;42.714;23.180;2023-04-25T01:53:06;0.35;;;0.35;;
21394;SDS011;10858;42.714;23.180;2023-04-25T01:55:36;0.47;;;0.47;;
21394;SDS011;10858;42.714;23.180;2023-04-25T01:58:02;0.40;;;0.40;;
21394;SDS011;10858;42.714;23.180;2023-04-25T02:00:34;0.20;;;0.20;;
21394;SDS011;10858;42.714;23.180;2023-04-25T02:03:03;0.60;;;0.60;;
21394;SDS011;10858;42.714;23.180;2023-04-25T02:05:33;0.30;;;0.30;;
21394;SDS011;10858;42.714;23.180;2023-04-25T02:08:09;0.40;;;0.40;;
21394;SDS011;10858;42.714;23.180;2023-04-25T02:10:36;0.82;;;0.73;;
21394;SDS011;10858;42.714;23.180;2023-04-25T02:13:02;0.40;;;0.40;;
21394;SDS011;10858;42.714;23.180;2023-04-25T02:15:30;0.20;;;0.20;;
21394;SDS011;10858;42.714;23.180;2023-04-25T02:17:56;0.55;;;0.55;;
21394;SDS011;10858;42.714;23.180;2023-04-25T02:20:25;1.27;;;1.17;;
21394;SDS011;10858;42.714;23.180;2023-04-25T02:22:52;1.27;;;0.98;;
21394;SDS011;10858;42.714;23.180;2023-04-25T02:25:18;1.02;;;0.98;;
21394;SDS011;10858;42.714;23.180;2023-04-25T02:27:45;0.70;;;0.70;;
21394;SDS011;10858;42.714;23.180;2023-04-25T02:30:12;0.73;;;0.73;;
21394;SDS011;10858;42.714;23.180;2023-04-25T02:32:38;1.13;;;0.93;;
21394;SDS011;10858;42.714;23.180;2023-04-25T02:35:06;0.75;;;0.75;;
21394;SDS011;10858;42.714;23.180;2023-04-25T02:37:33;1.17;;;1.00;;
21394;SDS011;10858;42.714;23.180;2023-04-25T02:40:00;1.27;;;1.20;;
21394;SDS011;10858;42.714;23.180;2023-04-25T02:42:28;2.08;;;1.70;;
21394;SDS011;10858;42.714;23.180;2023-04-25T02:44:54;1.58;;;1.48;;
21394;SDS011;10858;42.714;23.180;2023-04-25T02:47:20;0.98;;;0.98;;
21394;SDS011;10858;42.714;23.180;2023-04-25T02:49:46;1.05;;;1.05;;
21394;SDS011;10858;42.714;23.180;2023-04-25T02:52:13;3.22;;;2.20;;
21394;SDS011;10858;42.714;23.180;2023-04-25T02:54:39;1.63;;;1.48;;
21394;SDS011;10858;42.714;23.180;2023-04-25T02:57:06;1.67;;;1.58;;
21394;SDS011;10858;42.714;23.180;2023-04-25T02:59:33;2.38;;;2.17;;
21394;SDS011;10858;42.714;23.180;2023-04-25T03:01:59;1.60;;;1.13;;
21394;SDS011;10858;42.714;23.180;2023-04-25T03:04:26;2.08;;;1.23;;
21394;SDS011;10858;42.714;23.180;2023-04-25T03:06:52;3.75;;;2.67;;
21394;SDS011;10858;42.714;23.180;2023-04-25T03:09:18;2.28;;;2.10;;
21394;SDS011;10858;42.714;23.180;2023-04-25T03:11:45;2.47;;;2.28;;
21394;SDS011;10858;42.714;23.180;2023-04-25T03:14:11;0.70;;;0.70;;
21394;SDS011;10858;42.714;23.180;2023-04-25T03:16:38;1.85;;;1.75;;
21394;SDS011;10858;42.714;23.180;2023-04-25T03:19:04;2.53;;;1.70;;
21394;SDS011;10858;42.714;23.180;2023-04-25T03:21:32;1.75;;;1.65;;
21394;SDS011;10858;42.714;23.180;2023-04-25T03:24:00;2.30;;;2.08;;
21394;SDS011;10858;42.714;23.180;2023-04-25T03:26:27;2.38;;;2.15;;
21394;SDS011;10858;42.714;23.180;2023-04-25T03:28:53;1.13;;;1.13;;
21394;SDS011;10858;42.714;23.180;2023-04-25T03:31:19;2.40;;;2.22;;
21394;SDS011;10858;42.714;23.180;2023-04-25T03:33:46;5.82;;;2.00;;
21394;SDS011;10858;42.714;23.180;2023-04-25T03:36:12;3.80;;;2.45;;
21394;SDS011;10858;42.714;23.180;2023-04-25T03:38:38;1.77;;;1.67;;
21394;SDS011;10858;42.714;23.180;2023-04-25T03:41:06;2.40;;;2.20;;
21394;SDS011;10858;42.714;23.180;2023-04-25T03:43:32;1.52;;;1.42;;
21394;SDS011;10858;42.714;23.180;2023-04-25T03:45:59;1.10;;;1.10;;
21394;SDS011;10858;42.714;23.180;2023-04-25T03:48:25;2.47;;;1.85;;
21394;SDS011;10858;42.714;23.180;2023-04-25T03:50:52;3.08;;;2.03;;
21394;SDS011;10858;42.714;23.180;2023-04-25T03:53:19;1.27;;;1.17;;
21394;SDS011;10858;42.714;23.180;2023-04-25T03:55:45;2.38;;;1.27;;
21394;SDS011;10858;42.714;23.180;2023-04-25T03:58:12;2.22;;;2.03;;
21394;SDS011;10858;42.714;23.180;2023-04-25T04:00:38;1.50;;;1.40;;
21394;SDS011;10858;42.714;23.180;2023-04-25T04:03:04;1.95;;;1.67;;
21394;SDS011;10858;42.714;23.180;2023-04-25T04:05:30;3.25;;;2.25;;
21394;SDS011;10858;42.714;23.180;2023-04-25T04:07:57;0.88;;;0.85;;
21394;SDS011;10858;42.714;23.180;2023-04-25T04:10:23;1.92;;;1.45;;
21394;SDS011;10858;42.714;23.180;2023-04-25T04:12:51;1.60;;;1.48;;
21394;SDS011;10858;42.714;23.180;2023-04-25T04:15:17;0.80;;;0.80;;
21394;SDS011;10858;42.714;23.180;2023-04-25T04:17:43;1.13;;;1.10;;
21394;SDS011;10858;42.714;23.180;2023-04-25T04:20:10;2.65;;;1.00;;
21394;SDS011;10858;42.714;23.180;2023-04-25T04:22:36;1.48;;;1.38;;
21394;SDS011;10858;42.714;23.180;2023-04-25T04:25:02;1.90;;;1.27;;
21394;SDS011;10858;42.714;23.180;2023-04-25T04:27:30;0.65;;;0.65;;
21394;SDS011;10858;42.714;23.180;2023-04-25T04:29:57;0.93;;;0.93;;
21394;SDS011;10858;42.714;23.180;2023-04-25T04:32:23;0.63;;;0.63;;
21394;SDS011;10858;42.714;23.180;2023-04-25T04:34:50;1.30;;;1.02;;
21394;SDS011;10858;42.714;23.180;2023-04-25T04:37:17;1.65;;;1.55;;
21394;SDS011;10858;42.714;23.180;2023-04-25T04:39:43;0.77;;;0.47;;
21394;SDS011;10858;42.714;23.180;2023-04-25T04:42:10;1.35;;;1.25;;
21394;SDS011;10858;42.714;23.180;2023-04-25T04:44:36;1.02;;;1.00;;
21394;SDS011;10858;42.714;23.180;2023-04-25T04:47:04;0.38;;;0.38;;
21394;SDS011;10858;42.714;23.180;2023-04-25T04:49:31;1.55;;;1.17;;
21394;SDS011;10858;42.714;23.180;2023-04-25T04:51:57;0.77;;;0.77;;
21394;SDS011;10858;42.714;23.180;2023-04-25T04:54:25;0.68;;;0.68;;
21394;SDS011;10858;42.714;23.180;2023-04-25T04:56:52;0.40;;;0.40;;
21394;SDS011;10858;42.714;23.180;2023-04-25T04:59:18;1.23;;;1.13;;
21394;SDS011;10858;42.714;23.180;2023-04-25T05:01:44;0.45;;;0.45;;
21394;SDS011;10858;42.714;23.180;2023-04-25T05:04:11;1.50;;;1.02;;
21394;SDS011;10858;42.714;23.180;2023-04-25T05:06:38;0.63;;;0.63;;
21394;SDS011;10858;42.714;23.180;2023-04-25T05:09:04;1.38;;;1.17;;
21394;SDS011;10858;42.714;23.180;2023-04-25T05:11:30;0.88;;;0.88;;
21394;SDS011;10858;42.714;23.180;2023-04-25T05:13:56;0.63;;;0.63;;
21394;SDS011;10858;42.714;23.180;2023-04-25T05:16:22;0.63;;;0.63;;
21394;SDS011;10858;42.714;23.180;2023-04-25T05:18:49;0.45;;;0.45;;
21394;SDS011;10858;42.714;23.180;2023-04-25T05:21:15;3.83;;;1.60;;
21394;SDS011;10858;42.714;23.180;2023-04-25T05:23:41;0.60;;;0.60;;
21394;SDS011;10858;42.714;23.180;2023-04-25T05:26:07;0.77;;;0.73;;
21394;SDS011;10858;42.714;23.180;2023-04-25T05:28:38;1.42;;;1.10;;
21394;SDS011;10858;42.714;23.180;2023-04-25T05:31:06;0.80;;;0.80;;
21394;SDS011;10858;42.714;23.180;2023-04-25T05:33:32;0.68;;;0.68;;
21394;SDS011;10858;42.714;23.180;2023-04-25T05:35:58;1.77;;;1.38;;
21394;SDS011;10858;42.714;23.180;2023-04-25T05:38:25;0.90;;;0.90;;
21394;SDS011;10858;42.714;23.180;2023-04-25T05:40:51;0.55;;;0.55;;
21394;SDS011;10858;42.714;23.180;2023-04-25T05:43:17;0.38;;;0.38;;
21394;SDS011;10858;42.714;23.180;2023-04-25T05:45:43;0.40;;;0.40;;
21394;SDS011;10858;42.714;23.180;2023-04-25T05:48:10;0.45;;;0.45;;
21394;SDS011;10858;42.714;23.180;2023-04-25T05:50:36;0.70;;;0.70;;
21394;SDS011;10858;42.714;23.180;2023-04-25T05:53:02;0.73;;;0.73;;
21394;SDS011;10858;42.714;23.180;2023-04-25T05:55:30;0.82;;;0.82;;
21394;SDS011;10858;42.714;23.180;2023-04-25T05:57:56;7.63;;;1.48;;
21394;SDS011;10858;42.714;23.180;2023-04-25T06:00:32;0.52;;;0.45;;
21394;SDS011;10858;42.714;23.180;2023-04-25T06:02:58;2.03;;;1.35;;
21394;SDS011;10858;42.714;23.180;2023-04-25T06:05:25;0.88;;;0.88;;
21394;SDS011;10858;42.714;23.180;2023-04-25T06:07:51;1.30;;;1.08;;
21394;SDS011;10858;42.714;23.180;2023-04-25T06:10:17;1.40;;;1.30;;
21394;SDS011;10858;42.714;23.180;2023-04-25T06:12:43;2.03;;;1.00;;
21394;SDS011;10858;42.714;23.180;2023-04-25T06:15:10;1.23;;;1.13;;
21394;SDS011;10858;42.714;23.180;2023-04-25T06:17:36;0.95;;;0.95;;
21394;SDS011;10858;42.714;23.180;2023-04-25T06:20:03;5.63;;;1.65;;
21394;SDS011;10858;42.714;23.180;2023-04-25T06:22:29;0.70;;;0.50;;
21394;SDS011;10858;42.714;23.180;2023-04-25T06:24:56;2.22;;;1.10;;
21394;SDS011;10858;42.714;23.180;2023-04-25T06:27:23;1.42;;;1.30;;
21394;SDS011;10858;42.714;23.180;2023-04-25T06:29:50;0.50;;;0.50;;
21394;SDS011;10858;42.714;23.180;2023-04-25T06:32:16;1.10;;;1.10;;
21394;SDS011;10858;42.714;23.180;2023-04-25T06:34:43;0.80;;;0.77;;
21394;SDS011;10858;42.714;23.180;2023-04-25T06:37:09;2.13;;;1.35;;
21394;SDS011;10858;42.714;23.180;2023-04-25T06:39:35;1.50;;;1.08;;
21394;SDS011;10858;42.714;23.180;2023-04-25T06:42:02;0.50;;;0.50;;
21394;SDS011;10858;42.714;23.180;2023-04-25T06:44:28;2.83;;;1.17;;
21394;SDS011;10858;42.714;23.180;2023-04-25T06:46:54;0.57;;;0.57;;
21394;SDS011;10858;42.714;23.180;2023-04-25T06:49:20;0.50;;;0.50;;
21394;SDS011;10858;42.714;23.180;2023-04-25T06:51:47;0.65;;;0.65;;
21394;SDS011;10858;42.714;23.180;2023-04-25T06:54:13;1.13;;;1.02;;
21394;SDS011;10858;42.714;23.180;2023-04-25T06:56:40;0.93;;;0.90;;
21394;SDS011;10858;42.714;23.180;2023-04-25T06:59:06;0.50;;;0.50;;
21394;SDS011;10858;42.714;23.180;2023-04-25T07:01:32;3.03;;;1.30;;
21394;SDS011;10858;42.714;23.180;2023-04-25T07:03:58;2.17;;;1.10;;
21394;SDS011;10858;42.714;23.180;2023-04-25T07:06:25;0.88;;;0.88;;
21394;SDS011;10858;42.714;23.180;2023-04-25T07:08:52;0.55;;;0.50;;
21394;SDS011;10858;42.714;23.180;2023-04-25T07:11:19;1.20;;;1.10;;
21394;SDS011;10858;42.714;23.180;2023-04-25T07:13:46;14.13;;;2.38;;
21394;SDS011;10858;42.714;23.180;2023-04-25T07:16:12;1.05;;;0.93;;
21394;SDS011;10858;42.714;23.180;2023-04-25T07:18:38;0.80;;;0.80;;
21394;SDS011;10858;42.714;23.180;2023-04-25T07:21:04;0.40;;;0.40;;
21394;SDS011;10858;42.714;23.180;2023-04-25T07:23:30;0.43;;;0.43;;
21394;SDS011;10858;42.714;23.180;2023-04-25T07:25:57;1.27;;;1.15;;
21394;SDS011;10858;42.714;23.180;2023-04-25T07:28:23;3.17;;;0.90;;
21394;SDS011;10858;42.714;23.180;2023-04-25T07:30:49;1.00;;;1.00;;
21394;SDS011;10858;42.714;23.180;2023-04-25T07:33:15;0.50;;;0.50;;
21394;SDS011;10858;42.714;23.180;2023-04-25T07:35:42;0.50;;;0.50;;
21394;SDS011;10858;42.714;23.180;2023-04-25T07:38:08;0.60;;;0.38;;
21394;SDS011;10858;42.714;23.180;2023-04-25T07:40:35;1.02;;;0.47;;
21394;SDS011;10858;42.714;23.180;2023-04-25T07:43:01;0.52;;;0.52;;
21394;SDS011;10858;42.714;23.180;2023-04-25T07:45:27;0.40;;;0.40;;
21394;SDS011;10858;42.714;23.180;2023-04-25T07:47:53;0.40;;;0.40;;
21394;SDS011;10858;42.714;23.180;2023-04-25T07:50:20;0.57;;;0.52;;
21394;SDS011;10858;42.714;23.180;2023-04-25T07:52:46;0.40;;;0.40;;
21394;SDS011;10858;42.714;23.180;2023-04-25T07:55:12;1.13;;;0.38;;
21394;SDS011;10858;42.714;23.180;2023-04-25T07:57:39;1.35;;;0.63;;
21394;SDS011;10858;42.714;23.180;2023-04-25T08:00:05;3.10;;;0.85;;
21394;SDS011;10858;42.714;23.180;2023-04-25T08:02:36;0.43;;;0.43;;
21394;SDS011;10858;42.714;23.180;2023-04-25T08:05:02;0.40;;;0.40;;
21394;SDS011;10858;42.714;23.180;2023-04-25T08:07:28;0.45;;;0.45;;
21394;SDS011;10858;42.714;23.180;2023-04-25T08:09:55;0.75;;;0.75;;
21394;SDS011;10858;42.714;23.180;2023-04-25T08:12:21;0.52;;;0.40;;
21394;SDS011;10858;42.714;23.180;2023-04-25T08:14:47;1.88;;;0.40;;
21394;SDS011;10858;42.714;23.180;2023-04-25T08:17:13;1.30;;;0.50;;
21394;SDS011;10858;42.714;23.180;2023-04-25T08:19:40;0.30;;;0.30;;
21394;SDS011;10858;42.714;23.180;2023-04-25T08:22:06;2.05;;;0.60;;
21394;SDS011;10858;42.714;23.180;2023-04-25T08:24:32;0.77;;;0.77;;
21394;SDS011;10858;42.714;23.180;2023-04-25T08:26:58;0.50;;;0.50;;
21394;SDS011;10858;42.714;23.180;2023-04-25T08:29:25;0.30;;;0.30;;
21394;SDS011;10858;42.714;23.180;2023-04-25T08:31:53;0.35;;;0.35;;
21394;SDS011;10858;42.714;23.180;2023-04-25T08:34:19;0.40;;;0.40;;
21394;SDS011;10858;42.714;23.180;2023-04-25T08:36:45;0.20;;;0.20;;
21394;SDS011;10858;42.714;23.180;2023-04-25T08:39:12;0.68;;;0.68;;
21394;SDS011;10858;42.714;23.180;2023-04-25T08:41:38;0.52;;;0.38;;
21394;SDS011;10858;42.714;23.180;2023-04-25T08:44:05;0.35;;;0.35;;
21394;SDS011;10858;42.714;23.180;2023-04-25T08:46:35;0.68;;;0.68;;
21394;SDS011;10858;42.714;23.180;2023-04-25T08:49:05;0.30;;;0.30;;
21394;SDS011;10858;42.714;23.180;2023-04-25T08:51:34;1.40;;;0.55;;
21394;SDS011;10858;42.714;23.180;2023-04-25T08:54:09;0.35;;;0.35;;
21394;SDS011;10858;42.714;23.180;2023-04-25T08:56:40;0.30;;;0.30;;
21394;SDS011;10858;42.714;23.180;2023-04-25T08:59:13;0.10;;;0.10;;
21394;SDS011;10858;42.714;23.180;2023-04-25T09:01:40;0.57;;;0.57;;
21394;SDS011;10858;42.714;23.180;2023-04-25T09:04:06;0.20;;;0.20;;
21394;SDS011;10858;42.714;23.180;2023-04-25T09:06:32;0.10;;;0.10;;
21394;SDS011;10858;42.714;23.180;2023-04-25T09:09:06;0.30;;;0.25;;
21394;SDS011;10858;42.714;23.180;2023-04-25T09:11:34;0.30;;;0.30;;
21394;SDS011;10858;42.714;23.180;2023-04-25T09:19:39;0.10;;;0.10;;
21394;SDS011;10858;42.714;23.180;2023-04-25T09:22:06;0.30;;;0.30;;
21394;SDS011;10858;42.714;23.180;2023-04-25T09:24:33;0.28;;;0.25;;
21394;SDS011;10858;42.714;23.180;2023-04-25T09:27:08;1.90;;;0.47;;
21394;SDS011;10858;42.714;23.180;2023-04-25T09:29:36;0.20;;;0.20;;
21394;SDS011;10858;42.714;23.180;2023-04-25T09:32:23;13.48;;;0.63;;
21394;SDS011;10858;42.714;23.180;2023-04-25T09:34:50;0.20;;;0.20;;
21394;SDS011;10858;42.714;23.180;2023-04-25T09:37:21;0.13;;;0.13;;
21394;SDS011;10858;42.714;23.180;2023-04-25T09:39:55;0.10;;;0.10;;
21394;SDS011;10858;42.714;23.180;2023-04-25T09:42:29;0.68;;;0.68;;
21394;SDS011;10858;42.714;23.180;2023-04-25T09:44:57;0.20;;;0.20;;
21394;SDS011;10858;42.714;23.180;2023-04-25T09:47:24;0.10;;;0.10;;
21394;SDS011;10858;42.714;23.180;2023-04-25T09:49:52;0.10;;;0.10;;
21394;SDS011;10858;42.714;23.180;2023-04-25T09:52:22;0.00;;;0.00;;
21394;SDS011;10858;42.714;23.180;2023-04-25T09:54:50;1.77;;;0.75;;
21394;SDS011;10858;42.714;23.180;2023-04-25T09:57:18;0.10;;;0.10;;
21394;SDS011;10858;42.714;23.180;2023-04-25T09:59:45;0.05;;;0.05;;
21394;SDS011;10858;42.714;23.180;2023-04-25T10:02:17;0.17;;;0.17;;
21394;SDS011;10858;42.714;23.180;2023-04-25T10:04:47;0.05;;;0.05;;
21394;SDS011;10858;42.714;23.180;2023-04-25T10:07:17;0.00;;;0.00;;
21394;SDS011;10858;42.714;23.180;2023-04-25T10:09:47;0.17;;;0.17;;
21394;SDS011;10858;42.714;23.180;2023-04-25T10:12:17;0.10;;;0.10;;
21394;SDS011;10858;42.714;23.180;2023-04-25T10:14:44;0.20;;;0.20;;
21394;SDS011;10858;42.714;23.180;2023-04-25T10:17:11;0.20;;;0.20;;
21394;SDS011;10858;42.714;23.180;2023-04-25T10:19:39;0.25;;;0.10;;
21394;SDS011;10858;42.714;23.180;2023-04-25T10:22:20;0.20;;;0.20;;
21394;SDS011;10858;42.714;23.180;2023-04-25T10:24:57;0.20;;;0.20;;
21394;SDS011;10858;42.714;23.180;2023-04-25T10:27:26;0.10;;;0.10;;
21394;SDS011;10858;42.714;23.180;2023-04-25T10:30:09;0.30;;;0.30;;
21394;SDS011;10858;42.714;23.180;2023-04-25T10:32:41;0.10;;;0.10;;
21394;SDS011;10858;42.714;23.180;2023-04-25T10:35:15;0.20;;;0.20;;
21394;SDS011;10858;42.714;23.180;2023-04-25T10:40:30;0.10;;;0.10;;
21394;SDS011;10858;42.714;23.180;2023-04-25T10:48:52;0.20;;;0.20;;
21394;SDS011;10858;42.714;23.180;2023-04-25T10:51:26;0.15;;;0.15;;
21394;SDS011;10858;42.714;23.180;2023-04-25T10:56:28;0.00;;;0.00;;
21394;SDS011;10858;42.714;23.180;2023-04-25T10:59:06;0.00;;;0.00;;
21394;SDS011;10858;42.714;23.180;2023-04-25T11:01:47;0.30;;;0.30;;
21394;SDS011;10858;42.714;23.180;2023-04-25T11:04:20;0.10;;;0.10;;
21394;SDS011;10858;42.714;23.180;2023-04-25T11:09:38;0.28;;;0.28;;
21394;SDS011;10858;42.714;23.180;2023-04-25T11:12:07;0.03;;;0.03;;
21394;SDS011;10858;42.714;23.180;2023-04-25T11:14:35;0.20;;;0.20;;
21394;SDS011;10858;42.714;23.180;2023-04-25T11:17:01;0.10;;;0.10;;
21394;SDS011;10858;42.714;23.180;2023-04-25T11:19:28;0.20;;;0.20;;
21394;SDS011;10858;42.714;23.180;2023-04-25T11:21:55;0.40;;;0.40;;
21394;SDS011;10858;42.714;23.180;2023-04-25T11:24:32;0.20;;;0.20;;
21394;SDS011;10858;42.714;23.180;2023-04-25T11:26:59;0.10;;;0.10;;
21394;SDS011;10858;42.714;23.180;2023-04-25T11:29:29;0.22;;;0.22;;
21394;SDS011;10858;42.714;23.180;2023-04-25T11:31:57;0.20;;;0.20;;
21394;SDS011;10858;42.714;23.180;2023-04-25T11:34:24;0.22;;;0.20;;
21394;SDS011;10858;42.714;23.180;2023-04-25T11:36:51;0.20;;;0.20;;
21394;SDS011;10858;42.714;23.180;2023-04-25T11:39:21;1.00;;;0.40;;
21394;SDS011;10858;42.714;23.180;2023-04-25T11:41:48;0.20;;;0.20;;
21394;SDS011;10858;42.714;23.180;2023-04-25T11:44:15;0.20;;;0.20;;
21394;SDS011;10858;42.714;23.180;2023-04-25T11:46:43;0.82;;;0.52;;
21394;SDS011;10858;42.714;23.180;2023-04-25T11:49:10;0.25;;;0.25;;
21394;SDS011;10858;42.714;23.180;2023-04-25T11:51:43;0.10;;;0.10;;
21394;SDS011;10858;42.714;23.180;2023-04-25T11:54:11;0.20;;;0.20;;
21394;SDS011;10858;42.714;23.180;2023-04-25T11:56:44;0.10;;;0.10;;
21394;SDS011;10858;42.714;23.180;2023-04-25T11:59:11;0.20;;;0.10;;
21394;SDS011;10858;42.714;23.180;2023-04-25T12:01:38;0.10;;;0.10;;
21394;SDS011;10858;42.714;23.180;2023-04-25T12:04:12;0.20;;;0.20;;
21394;SDS011;10858;42.714;23.180;2023-04-25T12:06:38;0.05;;;0.05;;
21394;SDS011;10858;42.714;23.180;2023-04-25T12:09:07;0.30;;;0.30;;
21394;SDS011;10858;42.714;23.180;2023-04-25T12:11:42;0.13;;;0.13;;
21394;SDS011;10858;42.714;23.180;2023-04-25T12:14:23;0.20;;;0.20;;
21394;SDS011;10858;42.714;23.180;2023-04-25T12:17:00;0.30;;;0.30;;
21394;SDS011;10858;42.714;23.180;2023-04-25T12:19:32;0.15;;;0.15;;
21394;SDS011;10858;42.714;23.180;2023-04-25T12:22:00;0.22;;;0.20;;
21394;SDS011;10858;42.714;23.180;2023-04-25T12:24:32;0.10;;;0.10;;
21394;SDS011;10858;42.714;23.180;2023-04-25T12:27:03;0.20;;;0.20;;
21394;SDS011;10858;42.714;23.180;2023-04-25T12:29:31;0.40;;;0.40;;
21394;SDS011;10858;42.714;23.180;2023-04-25T12:31:58;0.20;;;0.20;;
21394;SDS011;10858;42.714;23.180;2023-04-25T12:34:27;0.75;;;0.75;;
21394;SDS011;10858;42.714;23.180;2023-04-25T12:36:54;0.20;;;0.20;;
21394;SDS011;10858;42.714;23.180;2023-04-25T12:39:22;0.20;;;0.20;;
21394;SDS011;10858;42.714;23.180;2023-04-25T12:41:50;0.10;;;0.10;;
21394;SDS011;10858;42.714;23.180;2023-04-25T12:44:20;0.95;;;0.95;;
21394;SDS011;10858;42.714;23.180;2023-04-25T12:46:47;0.20;;;0.20;;
21394;SDS011;10858;42.714;23.180;2023-04-25T12:49:13;0.43;;;0.43;;
21394;SDS011;10858;42.714;23.180;2023-04-25T12:51:39;1.75;;;1.05;;
21394;SDS011;10858;42.714;23.180;2023-04-25T12:54:06;4.75;;;1.15;;
21394;SDS011;10858;42.714;23.180;2023-04-25T12:56:33;2.28;;;1.30;;
21394;SDS011;10858;42.714;23.180;2023-04-25T12:59:00;0.28;;;0.28;;
21394;SDS011;10858;42.714;23.180;2023-04-25T13:01:28;0.30;;;0.30;;
21394;SDS011;10858;42.714;23.180;2023-04-25T13:03:54;0.28;;;0.28;;
21394;SDS011;10858;42.714;23.180;2023-04-25T13:06:21;0.35;;;0.35;;
21394;SDS011;10858;42.714;23.180;2023-04-25T13:08:47;2.67;;;0.90;;
21394;SDS011;10858;42.714;23.180;2023-04-25T13:11:13;0.80;;;0.80;;
21394;SDS011;10858;42.714;23.180;2023-04-25T13:13:40;0.20;;;0.20;;
21394;SDS011;10858;42.714;23.180;2023-04-25T13:16:07;0.28;;;0.28;;
21394;SDS011;10858;42.714;23.180;2023-04-25T13:18:33;0.38;;;0.38;;
21394;SDS011;10858;42.714;23.180;2023-04-25T13:21:00;0.20;;;0.20;;
21394;SDS011;10858;42.714;23.180;2023-04-25T13:23:27;1.13;;;0.85;;
21394;SDS011;10858;42.714;23.180;2023-04-25T13:25:55;0.30;;;0.30;;
21394;SDS011;10858;42.714;23.180;2023-04-25T13:28:25;0.50;;;0.50;;
21394;SDS011;10858;42.714;23.180;2023-04-25T13:30:52;0.20;;;0.20;;
21394;SDS011;10858;42.714;23.180;2023-04-25T13:33:19;0.35;;;0.35;;
21394;SDS011;10858;42.714;23.180;2023-04-25T13:35:46;0.63;;;0.63;;
21394;SDS011;10858;42.714;23.180;2023-04-25T13:38:23;0.20;;;0.20;;
21394;SDS011;10858;42.714;23.180;2023-04-25T13:40:50;0.20;;;0.20;;
21394;SDS011;10858;42.714;23.180;2023-04-25T13:43:20;0.20;;;0.20;;
21394;SDS011;10858;42.714;23.180;2023-04-25T13:45:48;0.50;;;0.50;;
21394;SDS011;10858;42.714;23.180;2023-04-25T13:48:15;0.20;;;0.20;;
21394;SDS011;10858;42.714;23.180;2023-04-25T13:50:41;0.10;;;0.10;;
21394;SDS011;10858;42.714;23.180;2023-04-25T13:53:07;0.10;;;0.10;;
21394;SDS011;10858;42.714;23.180;2023-04-25T13:55:34;0.10;;;0.10;;
21394;SDS011;10858;42.714;23.180;2023-04-25T13:58:04;0.70;;;0.47;;
21394;SDS011;10858;42.714;23.180;2023-04-25T14:00:33;0.20;;;0.20;;
21394;SDS011;10858;42.714;23.180;2023-04-25T14:03:02;0.20;;;0.20;;
21394;SDS011;10858;42.714;23.180;2023-04-25T14:05:31;0.20;;;0.20;;
21394;SDS011;10858;42.714;23.180;2023-04-25T14:08:02;0.17;;;0.17;;
21394;SDS011;10858;42.714;23.180;2023-04-25T14:10:33;0.20;;;0.20;;
21394;SDS011;10858;42.714;23.180;2023-04-25T14:12:59;0.10;;;0.10;;
21394;SDS011;10858;42.714;23.180;2023-04-25T14:15:26;0.73;;;0.57;;
21394;SDS011;10858;42.714;23.180;2023-04-25T14:17:52;0.10;;;0.10;;
21394;SDS011;10858;42.714;23.180;2023-04-25T14:20:18;1.77;;;0.40;;
21394;SDS011;10858;42.714;23.180;2023-04-25T14:22:46;0.38;;;0.30;;
21394;SDS011;10858;42.714;23.180;2023-04-25T14:25:12;0.28;;;0.28;;
21394;SDS011;10858;42.714;23.180;2023-04-25T14:27:38;0.10;;;0.10;;
21394;SDS011;10858;42.714;23.180;2023-04-25T14:30:05;0.20;;;0.20;;
21394;SDS011;10858;42.714;23.180;2023-04-25T14:32:33;0.20;;;0.20;;
21394;SDS011;10858;42.714;23.180;2023-04-25T14:35:00;0.20;;;0.20;;
21394;SDS011;10858;42.714;23.180;2023-04-25T14:37:26;0.10;;;0.10;;
21394;SDS011;10858;42.714;23.180;2023-04-25T14:39:52;0.20;;;0.20;;
21394;SDS011;10858;42.714;23.180;2023-04-25T14:42:18;0.30;;;0.30;;
21394;SDS011;10858;42.714;23.180;2023-04-25T14:44:44;0.10;;;0.10;;
21394;SDS011;10858;42.714;23.180;2023-04-25T14:47:11;0.65;;;0.65;;
21394;SDS011;10858;42.714;23.180;2023-04-25T14:49:37;1.42;;;0.60;;
21394;SDS011;10858;42.714;23.180;2023-04-25T14:52:03;0.40;;;0.40;;
21394;SDS011;10858;42.714;23.180;2023-04-25T14:54:29;0.17;;;0.17;;